x

Cape Elizabeth- 45nm Nw Of Aberdeen, Wa (46041) Wave Buoy

12:50 - Mon 1st Sep 2014 All times are PDT. -7 hours from GMT.

  • Sig Wave height 3.3ft
  • Swell Direction
  • Peak Period 9s
  • Average Period 7s
  • Wind
    7mph, 9mph gusts
  • Sea Temp 61°f
  • Ar Temp 60°f
  • Sea Pressure 1018.3mb
  • Cape Elizabeth- 45nm Nw Of Aberdeen, Wa
  • Cape Elizabeth- 45nm Nw Of Aberdeen, Wa

More Historic Weather Station data

Upgrade to MSW Pro to gain access to the past 30 days of data for over 8000 Wavebouys and Weather Stations around the globe.

Join Pro

Comparision Forecast

View Surf forecast
   
Seg 09/01 12:50 3.5ft 9s 7s 7 9 mph 1018.3mb 61f 60f
11:50 3.5ft 9s 7s 7 9 mph 1018.5mb 60f 60f
10:50 3.5ft 9s 7s 9 11 mph 1018.4mb 59f 59f
9:50 3.5ft 9s 7s 7 9 mph 1018.1mb 60f 60f
8:50 3.5ft 9s 7s 7 9 mph 1018.1mb 60f 59f
7:50 3.5ft 9s 7s 9 11 mph 1017.8mb 60f 59f
6:50 4ft 9s 7s 9 11 mph 1017.5mb 60f 59f
5:50 4ft 10s 7s 11 13 mph 1017.3mb 60f 59f
4:50 4.5ft 10s 8s 9 11 mph 1017.5mb 60f 58f
3:50 4.5ft 9s 8s 7
mph
1017.5mb 60f 60f
2:50 4.5ft 9s 8s 7 9 mph 1017.4mb 60f 60f
1:50 4ft 9s 7s 4 7 mph 1017.8mb 61f 60f
12:50 5ft 10s 8s 4 7 mph 1017.8mb 61f 60f
Dom 08/31 11:50 4.5ft 10s 7s 4
mph
1017.8mb 62f 61f
10:50 4.5ft 10s 7s 2 4 mph 1017.8mb 62f 61f
9:50 4.5ft 10s 7s 2 4 mph 1017.8mb 62f 61f
8:50 5ft 10s 7s 2 4 mph 1017.6mb 62f 61f
7:50 5.5ft 10s 8s  -  mph 1017.5mb 62f 62f
6:50 5ft 10s 7s 2 4 mph 1017.5mb 62f 62f
5:50 5.5ft 10s 8s 4
mph
1017.5mb 62f 62f
4:50 5.5ft 10s 8s 4 7 mph 1017.4mb 62f 62f
3:50 5.5ft 10s 8s 7
mph
1017.8mb 63f 62f
2:50 5.5ft 11s 8s 4
mph
1018.1mb 62f 62f
1:50 5ft 10s 8s 4 7 mph 1018.2mb 61f 61f
12:50 6ft 10s 8s 7
mph
1018.2mb 60f 60f
11:50 5.5ft 11s 8s 7 9 mph 1018.3mb 60f 59f
10:50 5.5ft 11s 8s 7 9 mph 1018.2mb 60f 58f
9:50 5.5ft 10s 8s 7 9 mph 1017.5mb 60f 59f
8:50 5.5ft 10s 8s 7 9 mph 1017.4mb 60f 58f
7:50 6ft 11s 8s 7 11 mph 1017mb 60f 57f
6:50 6ft 10s 8s 7 9 mph 1016.7mb 60f 58f
5:50 6ft 10s 8s 2 4 mph 1016.3mb 60f 60f
4:50 6ft 11s 8s 2 4 mph 1016mb 60f 60f
3:50 6ft 11s 8s 4
mph
1016.1mb 60f 61f
2:50 5.5ft 11s 7s 4
mph
1016.1mb 60f 61f
1:50 6ft 11s 8s  -  2 mph 1015.9mb 60f 61f
12:50 6.5ft 11s 8s 2
mph
1016mb 60f 61f
Sáb 08/30 11:50 6ft 11s 8s  -  2 mph 1015.8mb 60f 60f
10:50 7ft 10s 8s 2
mph
1015.7mb 60f 60f
9:50 7.5ft 11s 8s 4
mph
1015.5mb 60f 61f
8:50 7ft 11s 8s 2
mph
1015mb 60f 61f
7:50 6.5ft 11s 8s 4
mph
1014.5mb 61f 62f
6:50 6ft 11s 8s 7 9 mph 1014.3mb 61f 63f
5:50 6.5ft 11s 8s 11 13 mph 1014.1mb 61f 63f
4:50 6ft 10s 8s 9 11 mph 1013.9mb 62f 63f
3:50 6ft 11s 8s 7 11 mph 1013.6mb 61f 63f
2:50 5.5ft 12s 8s 9 11 mph 1013.6mb 62f 62f
1:50 5ft 8s 8s 11 13 mph 1013.3mb 62f 62f
12:50 4.5ft 9s 8s 2 4 mph 1013.1mb 63f 61f
11:50 4.5ft 8s 8s 4 7 mph 1013.1mb 62f 60f
10:50 4ft 9s 8s 2 4 mph 1012.9mb 61f 60f
9:50 4ft 8s 8s 2
mph
1012.6mb 60f 59f
8:50 3.5ft 8s 7s 4 7 mph 1012.2mb 60f 58f
7:50 3.5ft 8s 6s 4 7 mph 1012.1mb 60f 59f
6:50 3.5ft 9s 6s 7
mph
1012.1mb 60f 59f
5:50 3.5ft 14s 6s 7 9 mph 1012mb 61f 59f
4:50 3.5ft 15s 6s 4 7 mph 1012mb 61f 60f
3:50 3.5ft 14s 7s 7 9 mph 1012.7mb 61f 59f
2:50 3ft 13s 7s 7 9 mph 1013.1mb 61f 59f
1:50 3.5ft 14s 7s 4 7 mph 1013.5mb 61f 60f
12:50 3ft 14s 7s 7
mph
1013.7mb 61f 60f
Sex 08/29 11:50 2.5ft 14s 7s 9 11 mph 1014.2mb 61f 60f
10:50 3ft 13s 8s 7 9 mph 1014.4mb 61f 60f
9:50 3ft 9s 7s 4 7 mph 1014.6mb 61f 62f
8:50 3ft 9s 7s 4 7 mph 1014.6mb 62f 62f
7:50 2.5ft 10s 7s 4
mph
1014.7mb 62f 62f
6:50 3ft 14s 7s 4
mph
1014.9mb 62f 62f
5:50 3.5ft 10s 7s 4
mph
1014.9mb 62f 63f
4:50 3ft 10s 7s 4
mph
1015.1mb 62f 63f
3:50 3.5ft 14s 7s 4
mph
1015.1mb 62f 64f
2:50 3.5ft 9s 7s 4 7 mph 1015.5mb 60f 62f
1:50 3ft 9s 8s 4 7 mph 1015.6mb 60f 60f
12:50 3.5ft 14s 8s 9 11 mph 1015.4mb 59f 58f
11:50 3.5ft 10s 8s 11 13 mph 1015.6mb 58f 57f
10:50 3.5ft 10s 8s 11 16 mph 1015.6mb 58f 57f
9:50 3.5ft 10s 8s 11
mph
1015.5mb 58f 56f
8:50 3.5ft 10s 8s 9
mph
1015.5mb 58f 56f
7:50 4ft 10s 8s 9
mph
1015.4mb 58f 56f
6:50 3.5ft 10s 7s 7 9 mph 1015.2mb 58f 56f
5:50 3.5ft 9s 7s 9
mph
1015.3mb 58f 58f
4:50 3.5ft 10s 7s 7
mph
1015.2mb 58f 57f
3:50 3.5ft 10s 8s  -  2 mph 1015.8mb 58f 57f
2:50 3.5ft 11s 8s 2 4 mph 1015.8mb 58f 58f
1:50 3.5ft 10s 8s 2
mph
1016.3mb 58f 58f
12:50 4ft 10s 8s 2 4 mph 1016.8mb 59f 58f
Qui 08/28 11:50 4ft 9s 7s 2 4 mph 1017.1mb 59f 57f
10:50 4.5ft 11s 8s 2
mph
1017.7mb 59f 57f
9:50 3.5ft 10s 7s 2 4 mph 1018mb 59f 58f